San Antonio, TX (78221)

7:22 PM CST on January 24, 2017 (GMT -0600)
Newell Commercial Properties LP | | Change Station

Elev 625 ft 29.40 °N, 98.49 °W | Updated 2 minutes ago

Clear
Clear
76.6 °F
Feels Like 78 °F
N
4.0
Wind Variable Wind from SSE
Gusts 5.0 mph

Today
High -- | Low -- °F
--% Chance of Precip.
Yesterday
High -- | Low -- °F
Precip. -- in
Pressure 29.61 in
Visibility 10.0 miles
Clouds Clear
Heat Index 78 °F
Dew Point 62 °F
Humidity 61%
Rainfall 0.00 in
Snow Depth Not available.
7:26 AM 6:05 PM
Waning Crescent, 9% visible
METAR KSSF 250053Z 10010KT 10SM CLR 25/12 A2962 RMK AO2 SLP027 T02500117
Pressure 29.61 in
Visibility 10.0 miles
Clouds Clear
Heat Index 78 °F
Dew Point 62 °F
Humidity 61%
Rainfall 0.00 in
Snow Depth Not available.
7:26 AM 6:05 PM
Waning Crescent, 9% visible
METAR KSSF 250053Z 10010KT 10SM CLR 25/12 A2962 RMK AO2 SLP027 T02500117

Get Your Daily Forecast Email!

Thanks for signing up!

Be on the lookout for a verification email in your inbox.

You'll start receiving the daily forecast at 8 AM.

×

10-Day Weather Forecast

Almanac

Astronomy

Jan. 24, 2017 Rise Set
Actual Time
Civil Twilight
Nautical Twilight
Astronomical Twilight
Moon
Length of Visible Light
Length of Day
Tomorrow will be .
, % of the Moon is Illuminated

Today's Extremes

State Highs State Lows

Community

WunderPhotos

Upload Photos

1,962,540 photos uploaded!

WunderBlog® & News

Nearby

Air Quality

  Air Quality AQ Index Pollutant
Not available.

Snow Depth

Station Depth Elevation

Earthquake Activity

City Distance Mag. Time & Date
Minimum magnitude displayed is 2.5.

Coastal Water Temperatures

Place Temperature

Stations

Nearby Weather Stations

Station Location Temp. Windchill Dew Point Humidity Wind Precip. Elev Updated Type
                   

Watches & Warnings

There are currently no watches in effect.